The Hangar Logo

METARs in Plain English
Latest METAR information for EGVN - BRIZE NORTON

EGVN 091650Z 21005KT CAVOK 13/09 Q1022 BLU BECMG BKN010 GRN

In plain english is....

This is a METAR report for EGVN - BRIZE NORTON .
The report was made 28 minutes ago, at 16:50 UTC.
The wind was blowing at a speed of 5 knots (5.8 miles per hour, 2.6 metres per second) from the South/Southwest (210°).
The visibility was greater than 6.2 miles (greater than 10 kilometres).
There were no clouds below 5,000 feet (1,524 metres).
The temperature was 13°C (55°F), a dew point of 9°C (48°F) and a relative humidity of 76.7%.
The altimeter setting (airfield QNH) was 1,022 hPa (30.18 inHg).
Other remarks BLU BECMG BKN010 GRN.

UK Mainland

Ireland

Channel Islands

France

Other



Enter
Tel: 07092 887559 - Fax: 07092 183262

Content copyright © 1999-2016 TheHangar.co.uk. All rights reserved.
Please send your questions, comments, or bug reports to the Webmaster.